Time;durP1;ratioP1;P1;durP2;ratioP2;P2;SDS_P1;SDS_P2;PMS_P1;PMS_P2;Temp;Humidity;BMP_temperature;BMP_pressure;BME280_temperature;BME280_humidity;BME280_pressure;Samples;Min_cycle;Max_cycle;Signal;HPM_P1;HPM_P2
2022/05/02 00:01:19;;;;;;;12.83;8.87;;;11.50;92.70;;;;;;4972098;28;20034;-79
2022/05/02 00:03:45;;;;;;;14.77;8.80;;;11.50;92.80;;;;;;4972170;28;20483;-79
2022/05/02 00:06:11;;;;;;;12.57;8.77;;;11.50;92.80;;;;;;4972114;28;20041;-79
2022/05/02 00:08:36;;;;;;;13.53;9.17;;;11.50;92.90;;;;;;4971942;28;20022;-79
2022/05/02 00:11:02;;;;;;;14.87;9.30;;;11.50;92.90;;;;;;4972086;28;20411;-79
2022/05/02 00:13:28;;;;;;;13.37;9.30;;;11.50;93.00;;;;;;4971914;28;20062;-79
2022/05/02 00:15:54;;;;;;;11.53;8.53;;;11.50;93.10;;;;;;4972138;28;20098;-79
2022/05/02 00:18:19;;;;;;;14.23;9.30;;;11.50;93.10;;;;;;4971884;28;20462;-79
2022/05/02 00:20:45;;;;;;;13.23;9.27;;;11.50;93.00;;;;;;4972256;28;20110;-79
2022/05/02 00:23:11;;;;;;;13.33;9.43;;;11.40;93.00;;;;;;4972041;28;20214;-79
2022/05/02 00:25:37;;;;;;;19.27;10.10;;;11.40;93.00;;;;;;4972168;28;20058;-79
2022/05/02 00:28:04;;;;;;;15.47;9.73;;;11.50;93.00;;;;;;4971783;28;20035;-79
2022/05/02 00:30:30;;;;;;;14.03;9.30;;;11.40;93.10;;;;;;4954622;28;20091;-79
2022/05/02 00:32:57;;;;;;;16.33;9.23;;;11.40;93.20;;;;;;4971741;28;20034;-79
2022/05/02 00:35:24;;;;;;;14.37;9.83;;;11.40;93.30;;;;;;4954685;28;20425;-79
2022/05/02 00:37:50;;;;;;;13.97;10.20;;;11.30;93.20;;;;;;4971823;28;20053;-79
2022/05/02 00:40:17;;;;;;;14.97;9.97;;;11.30;93.30;;;;;;4972086;28;20026;-79
2022/05/02 00:42:44;;;;;;;17.17;9.23;;;11.30;93.40;;;;;;4954355;28;20035;-79
2022/05/02 00:45:12;;;;;;;15.00;9.90;;;11.30;93.50;;;;;;4974630;28;20264;-79
2022/05/02 00:47:38;;;;;;;16.47;10.20;;;11.30;93.30;;;;;;4975741;28;20031;-78
2022/05/02 00:50:06;;;;;;;15.17;9.90;;;11.40;93.30;;;;;;4975671;28;20034;-79
2022/05/02 00:52:32;;;;;;;14.33;9.77;;;11.30;93.30;;;;;;4975392;28;20082;-79
2022/05/02 00:55:00;;;;;;;13.70;9.90;;;11.30;93.50;;;;;;4975472;28;20038;-79
2022/05/02 00:57:26;;;;;;;14.97;10.00;;;11.30;93.40;;;;;;4975258;28;20031;-79
2022/05/02 00:59:52;;;;;;;14.00;9.90;;;11.30;93.40;;;;;;4975344;28;20118;-79
2022/05/02 01:02:17;;;;;;;17.73;10.57;;;11.30;93.50;;;;;;4975488;28;20050;-79
2022/05/02 01:04:44;;;;;;;13.33;9.60;;;11.30;93.50;;;;;;4975571;28;20033;-79
2022/05/02 01:07:18;;;;;;;15.00;10.17;;;11.20;93.50;;;;;;4975237;28;20035;-79
2022/05/02 01:09:46;;;;;;;17.37;10.97;;;11.20;93.60;;;;;;4975314;28;20089;-79
2022/05/02 01:12:19;;;;;;;14.50;10.73;;;11.20;93.70;;;;;;4975014;28;20039;-79
2022/05/02 01:14:52;;;;;;;14.97;11.00;;;11.10;93.90;;;;;;4975288;28;20166;-79
2022/05/02 01:17:18;;;;;;;16.60;10.87;;;11.00;94.00;;;;;;4975121;28;20058;-79
2022/05/02 01:19:45;;;;;;;15.13;9.80;;;11.00;94.20;;;;;;4975129;28;20046;-79
2022/05/02 01:22:11;;;;;;;15.53;10.17;;;11.10;94.20;;;;;;4974838;28;20022;-79
2022/05/02 01:24:40;;;;;;;15.27;10.20;;;11.10;94.10;;;;;;4975029;28;20458;-79
2022/05/02 01:27:08;;;;;;;16.27;10.50;;;11.10;94.00;;;;;;4974724;28;20034;-79
2022/05/02 01:29:36;;;;;;;16.23;10.97;;;11.10;94.00;;;;;;4974948;28;20128;-79
2022/05/02 01:32:06;;;;;;;17.27;10.27;;;11.10;93.80;;;;;;4974833;28;20039;-78
2022/05/02 01:34:36;;;;;;;15.50;10.53;;;11.10;93.80;;;;;;4974946;28;20038;-79
2022/05/02 01:37:02;;;;;;;15.93;10.37;;;11.20;93.80;;;;;;4974681;28;20030;-79
2022/05/02 01:39:29;;;;;;;15.87;10.60;;;11.10;93.90;;;;;;4974745;28;20064;-79
2022/05/02 01:41:59;;;;;;;16.30;10.47;;;11.10;93.90;;;;;;4974422;28;20033;-79
2022/05/02 01:44:24;;;;;;;15.37;10.80;;;11.10;93.80;;;;;;4974667;28;20031;-78
2022/05/02 01:46:52;;;;;;;16.97;11.37;;;11.10;93.80;;;;;;4974451;28;20038;-79
2022/05/02 01:49:17;;;;;;;17.40;10.97;;;11.10;93.70;;;;;;4974580;28;20047;-79
2022/05/02 01:51:43;;;;;;;16.27;10.50;;;11.10;93.90;;;;;;4974382;28;20093;-79
2022/05/02 01:54:09;;;;;;;13.97;9.50;;;11.10;93.70;;;;;;4974455;28;20035;-79
2022/05/02 01:56:35;;;;;;;14.47;9.93;;;11.10;93.70;;;;;;4956567;28;20114;-78
2022/05/02 01:59:01;;;;;;;18.67;10.53;;;11.10;93.70;;;;;;4974392;28;20361;-79
2022/05/02 02:01:27;;;;;;;17.20;11.43;;;11.20;93.70;;;;;;4974221;28;20026;-79
2022/05/02 02:03:53;;;;;;;16.07;10.53;;;11.20;93.70;;;;;;4974514;28;20030;-79
2022/05/02 02:06:21;;;;;;;14.10;10.03;;;11.10;93.70;;;;;;4974315;28;20415;-79
2022/05/02 02:08:48;;;;;;;19.17;10.27;;;11.00;93.80;;;;;;4973897;28;20030;-79
2022/05/02 02:11:14;;;;;;;15.20;10.77;;;11.10;93.60;;;;;;4957061;28;20043;-79
2022/05/02 02:13:40;;;;;;;15.23;10.10;;;11.10;93.70;;;;;;4974176;28;20030;-79
2022/05/02 02:16:09;;;;;;;15.00;10.23;;;11.10;93.80;;;;;;4973886;28;20035;-79
2022/05/02 02:18:37;;;;;;;14.32;10.27;;;11.00;93.80;;;;;;4973825;28;20027;-78
2022/05/02 02:21:04;;;;;;;14.53;9.80;;;11.10;93.70;;;;;;4973841;28;20035;-79
2022/05/02 02:23:31;;;;;;;15.10;10.40;;;11.00;93.80;;;;;;4973822;28;20509;-78
2022/05/02 02:25:56;;;;;;;17.33;10.27;;;11.00;93.80;;;;;;4973847;28;20038;-79
2022/05/02 02:28:22;;;;;;;14.00;10.23;;;11.10;93.70;;;;;;4973889;28;20039;-79
2022/05/02 02:30:48;;;;;;;16.20;9.97;;;11.00;93.70;;;;;;4973840;28;20034;-79
2022/05/02 02:33:14;;;;;;;16.30;10.27;;;11.00;93.90;;;;;;4973595;28;20030;-79
2022/05/02 02:35:40;;;;;;;15.30;10.30;;;11.10;94.00;;;;;;4974058;28;20031;-79
2022/05/02 02:38:08;;;;;;;14.03;10.33;;;11.00;94.10;;;;;;4973413;28;20035;-79
2022/05/02 02:40:34;;;;;;;17.33;10.85;;;11.00;94.00;;;;;;4956171;28;20388;-79
2022/05/02 02:43:00;;;;;;;18.10;11.30;;;11.00;93.90;;;;;;4973528;28;20041;-79
2022/05/02 02:45:26;;;;;;;14.40;10.40;;;10.90;94.00;;;;;;4973584;28;20023;-78
2022/05/02 02:47:52;;;;;;;13.80;10.43;;;10.90;93.90;;;;;;4973331;28;20259;-79
2022/05/02 02:50:18;;;;;;;13.20;9.53;;;11.00;93.90;;;;;;4973314;28;20121;-79
2022/05/02 02:52:43;;;;;;;15.03;10.27;;;11.00;93.90;;;;;;4973335;28;20038;-79
2022/05/02 02:55:09;;;;;;;13.73;10.00;;;10.90;94.10;;;;;;4973525;28;20034;-79
2022/05/02 02:57:35;;;;;;;17.27;10.77;;;10.90;94.10;;;;;;4972913;28;20497;-79
2022/05/02 03:00:01;;;;;;;14.53;10.80;;;10.90;94.10;;;;;;4973301;28;20035;-79
2022/05/02 03:02:27;;;;;;;17.17;11.20;;;10.80;94.00;;;;;;4973036;28;20106;-78
2022/05/02 03:07:37;;;;;;;16.07;10.63;;;10.80;94.10;;;;;;4972301;28;20035;-78
2022/05/02 03:10:04;;;;;;;17.17;11.40;;;10.70;94.30;;;;;;4973026;28;20076;-77
2022/05/02 03:12:29;;;;;;;15.50;10.57;;;10.80;94.40;;;;;;4972912;28;20041;-78
2022/05/02 03:14:55;;;;;;;15.17;10.93;;;10.70;94.30;;;;;;4973038;28;20455;-77
2022/05/02 03:17:21;;;;;;;16.50;10.07;;;10.80;94.30;;;;;;4972659;28;20073;-78
2022/05/02 03:19:47;;;;;;;12.77;9.53;;;10.80;94.30;;;;;;4972844;28;20031;-78
2022/05/02 03:22:12;;;;;;;14.43;10.80;;;10.70;94.40;;;;;;4972819;28;20060;-78
2022/05/02 03:24:39;;;;;;;15.50;10.60;;;10.80;94.40;;;;;;4972861;28;20106;-78
2022/05/02 03:27:05;;;;;;;17.20;12.00;;;10.70;94.30;;;;;;4972630;28;20035;-78
2022/05/02 03:29:31;;;;;;;14.37;10.17;;;10.70;94.30;;;;;;4955591;28;20031;-78
2022/05/02 03:31:57;;;;;;;16.37;10.23;;;10.70;94.30;;;;;;4972416;28;20403;-77
2022/05/02 03:34:22;;;;;;;14.27;9.80;;;10.60;94.40;;;;;;4972669;28;20034;-78
2022/05/02 03:36:48;;;;;;;15.80;10.13;;;10.60;94.60;;;;;;4972457;28;20022;-78
2022/05/02 03:39:14;;;;;;;17.63;10.53;;;10.60;94.70;;;;;;4972627;28;20464;-78
2022/05/02 03:41:40;;;;;;;15.70;10.07;;;10.60;94.80;;;;;;4972295;28;20026;-78
2022/05/02 03:44:06;;;;;;;14.43;10.43;;;10.60;94.70;;;;;;4972568;28;20022;-77
2022/05/02 03:46:31;;;;;;;17.53;10.80;;;10.60;94.60;;;;;;4972259;28;20446;-78
2022/05/02 03:48:59;;;;;;;16.77;10.77;;;10.60;94.50;;;;;;4972553;28;20027;-78
2022/05/02 03:51:25;;;;;;;14.27;10.20;;;10.60;94.60;;;;;;4972327;28;20031;-77
2022/05/02 03:53:51;;;;;;;15.23;10.30;;;10.60;94.60;;;;;;4972387;28;20034;-78
2022/05/02 03:56:16;;;;;;;15.87;10.90;;;10.60;94.50;;;;;;4972364;28;20033;-78
2022/05/02 03:58:42;;;;;;;14.70;10.37;;;10.60;94.40;;;;;;4972318;28;20037;-77
2022/05/02 04:01:08;;;;;;;16.20;10.87;;;10.50;94.60;;;;;;4972222;28;20518;-77
2022/05/02 04:03:33;;;;;;;14.30;11.27;;;10.50;94.70;;;;;;4972256;28;20031;-78
2022/05/02 04:05:59;;;;;;;16.33;11.03;;;10.50;94.70;;;;;;4954871;28;20027;-78
2022/05/02 04:08:25;;;;;;;15.03;10.23;;;10.50;94.60;;;;;;4972138;28;20031;-78
2022/05/02 04:10:51;;;;;;;16.23;11.07;;;10.50;94.90;;;;;;4955005;28;20097;-78
2022/05/02 04:13:16;;;;;;;16.67;11.57;;;10.50;94.70;;;;;;4972105;28;20031;-78
2022/05/02 04:15:42;;;;;;;17.63;10.77;;;10.40;94.80;;;;;;4972165;28;20039;-78
2022/05/02 04:18:08;;;;;;;16.13;10.60;;;10.40;94.80;;;;;;4973258;28;20030;-78
2022/05/02 04:20:34;;;;;;;16.13;10.70;;;10.40;94.90;;;;;;4976195;28;20038;-78
2022/05/02 04:23:00;;;;;;;15.17;10.87;;;10.40;95.00;;;;;;4976039;28;20118;-78
2022/05/02 04:25:26;;;;;;;18.73;11.53;;;10.40;95.00;;;;;;4976152;28;20026;-77
2022/05/02 04:27:51;;;;;;;15.87;10.57;;;10.30;95.10;;;;;;4975864;28;20395;-78
2022/05/02 04:30:17;;;;;;;16.30;10.97;;;10.40;95.10;;;;;;4975835;28;20031;-78
2022/05/02 04:32:43;;;;;;;16.33;10.97;;;10.40;95.00;;;;;;4975854;28;20089;-78
2022/05/02 04:35:10;;;;;;;16.13;11.03;;;10.30;95.10;;;;;;4976072;28;20034;-77
2022/05/02 04:37:39;;;;;;;18.17;10.57;;;10.40;95.20;;;;;;4975906;28;20117;-78
2022/05/02 04:40:05;;;;;;;16.38;10.45;;;10.40;95.10;;;;;;4975836;28;20078;-78
2022/05/02 04:42:31;;;;;;;17.27;10.93;;;10.40;95.20;;;;;;4958263;28;20050;-78
2022/05/02 04:44:57;;;;;;;16.13;10.80;;;10.40;95.10;;;;;;4975652;28;20483;-78
2022/05/02 04:47:22;;;;;;;17.23;11.17;;;10.40;95.10;;;;;;4975477;28;20447;-77
2022/05/02 04:49:48;;;;;;;17.10;10.90;;;10.50;95.10;;;;;;4975696;28;20058;-78
2022/05/02 04:52:14;;;;;;;19.40;11.67;;;10.40;95.00;;;;;;4975467;28;20541;-77
2022/05/02 04:54:39;;;;;;;15.23;11.30;;;10.40;95.10;;;;;;4975573;28;20039;-78
2022/05/02 04:57:06;;;;;;;20.97;12.43;;;10.40;95.20;;;;;;4975370;28;20488;-78
2022/05/02 04:59:32;;;;;;;15.40;11.00;;;10.30;95.20;;;;;;4975468;28;20031;-78
2022/05/02 05:01:58;;;;;;;14.60;10.63;;;10.40;95.20;;;;;;4957803;28;20438;-78
2022/05/02 05:04:24;;;;;;;17.60;12.10;;;10.40;95.30;;;;;;4975593;28;20111;-78
2022/05/02 05:06:50;;;;;;;18.83;12.47;;;10.40;95.30;;;;;;4975125;28;20034;-78
2022/05/02 05:09:16;;;;;;;20.03;12.80;;;10.40;95.20;;;;;;4975314;28;20045;-78
2022/05/02 05:12:01;;;;;;;19.03;12.00;;;10.40;95.20;;;;;;4975018;28;20243;-78
2022/05/02 05:17:39;;;;;;;19.30;12.70;;;10.40;95.20;;;;;;4974906;28;20035;-78
2022/05/02 05:20:05;;;;;;;21.70;12.67;;;10.40;95.20;;;;;;4975021;28;20034;-77
2022/05/02 05:22:49;;;;;;;21.03;13.13;;;10.40;95.20;;;;;;4957439;28;20403;-78
2022/05/02 05:25:30;;;;;;;18.03;12.73;;;10.40;95.20;;;;;;4957896;28;20038;-78
2022/05/02 05:28:04;;;;;;;21.10;12.87;;;10.50;95.20;;;;;;4974812;28;20034;-78
2022/05/02 05:30:40;;;;;;;19.60;12.93;;;10.40;95.20;;;;;;4974158;28;20039;-78
2022/05/02 05:33:11;;;;;;;17.60;12.37;;;10.50;95.30;;;;;;4974723;28;20518;-78
2022/05/02 05:35:55;;;;;;;20.67;13.20;;;10.50;95.30;;;;;;4974784;28;20065;-78
2022/05/02 05:38:59;;;;;;;24.00;14.30;;;10.50;95.30;;;;;;4974509;28;20037;-78
2022/05/02 05:41:44;;;;;;;21.67;12.27;;;10.60;95.30;;;;;;4974409;28;20030;-78
2022/05/02 05:44:33;;;;;;;21.37;12.20;;;10.50;95.30;;;;;;4974587;28;20089;-78
2022/05/02 05:47:08;;;;;;;20.83;13.53;;;10.60;95.60;;;;;;4974415;28;20097;-78
2022/05/02 05:49:55;;;;;;;18.13;12.97;;;10.60;95.30;;;;;;4974353;28;20720;-77
2022/05/02 05:52:40;;;;;;;18.23;12.67;;;10.50;95.30;;;;;;4974414;28;20399;-78
2022/05/02 05:55:11;;;;;;;18.73;12.20;;;10.60;95.30;;;;;;4974507;28;20038;-78
2022/05/02 05:57:52;;;;;;;18.43;12.10;;;10.60;95.20;;;;;;4974012;28;20038;-78
2022/05/02 06:00:18;;;;;;;20.70;12.73;;;10.60;95.10;;;;;;4974261;28;20384;-78
2022/05/02 06:03:12;;;;;;;19.60;12.97;;;10.60;95.10;;;;;;4974103;28;20478;-78
2022/05/02 06:05:43;;;;;;;23.43;12.77;;;10.60;95.10;;;;;;4974376;28;20063;-78
2022/05/02 06:08:30;;;;;;;18.73;12.80;;;10.60;95.00;;;;;;4973909;28;20107;-78
2022/05/02 06:10:58;;;;;;;21.97;12.57;;;10.70;95.00;;;;;;4973554;28;20043;-80
2022/05/02 06:13:29;;;;;;;21.30;13.37;;;10.70;94.90;;;;;;4973880;28;20058;-80
2022/05/02 06:18:42;;;;;;;22.87;13.20;;;10.80;94.90;;;;;;4973600;28;20037;-80
2022/05/02 06:21:09;;;;;;;19.20;12.73;;;10.70;94.80;;;;;;4973812;28;20510;-80
2022/05/02 06:23:43;;;;;;;22.67;13.30;;;10.80;94.90;;;;;;4973744;28;20034;-78
2022/05/02 06:26:09;;;;;;;18.83;12.57;;;10.80;95.00;;;;;;4973861;28;20050;-78
2022/05/02 06:28:43;;;;;;;21.97;13.53;;;11.00;94.90;;;;;;4973650;28;20030;-78
2022/05/02 06:31:14;;;;;;;23.77;12.73;;;11.10;94.70;;;;;;4973421;28;20030;-78
2022/05/02 06:33:42;;;;;;;26.27;14.23;;;11.10;94.50;;;;;;4973791;28;20039;-78
2022/05/02 06:36:25;;;;;;;18.40;11.70;;;11.20;94.40;;;;;;4973680;28;20027;-80
2022/05/02 06:39:04;;;;;;;20.60;12.83;;;11.30;94.50;;;;;;4973594;28;20472;-80
2022/05/02 06:41:45;;;;;;;25.45;13.45;;;11.30;94.30;;;;;;4972540;28;20039;-77
2022/05/02 06:44:42;;;;;;;19.17;12.27;;;11.40;94.20;;;;;;4973685;28;20034;-78
2022/05/02 06:47:37;;;;;;;25.60;12.50;;;11.50;94.10;;;;;;4973495;28;20427;-78
2022/05/02 06:50:06;;;;;;;21.83;11.83;;;11.60;94.00;;;;;;4973504;28;20034;-78
2022/05/02 06:52:38;;;;;;;23.95;13.93;;;11.60;93.80;;;;;;4973041;28;20487;-78
2022/05/02 06:55:19;;;;;;;19.43;12.77;;;11.60;93.90;;;;;;4973497;28;20035;-78
2022/05/02 06:58:08;;;;;;;16.40;11.57;;;11.70;93.80;;;;;;4973049;28;20035;-78
2022/05/02 07:00:43;;;;;;;20.97;12.73;;;11.70;93.90;;;;;;4973026;28;20117;-78
2022/05/02 07:03:27;;;;;;;24.37;14.73;;;11.80;93.90;;;;;;5088731;27;20377;-73
2022/05/02 07:06:06;;;;;;;23.23;13.07;;;11.80;93.70;;;;;;5087866;28;20428;-73
2022/05/02 07:08:56;;;;;;;17.80;12.02;;;11.90;93.50;;;;;;5067494;28;20033;-69
2022/05/02 07:11:27;;;;;;;20.33;11.87;;;11.90;93.50;;;;;;5068340;28;20033;-67
2022/05/02 07:14:03;;;;;;;19.53;11.67;;;12.00;94.10;;;;;;5068542;28;20448;-67
2022/05/02 07:16:32;;;;;;;20.13;11.57;;;11.90;93.40;;;;;;5068240;28;20020;-68
2022/05/02 07:19:35;;;;;;;19.75;11.98;;;11.90;93.70;;;;;;5068068;28;20082;-68
2022/05/02 07:22:08;;;;;;;20.37;13.40;;;12.00;93.30;;;;;;5067885;28;20090;-70
2022/05/02 07:24:47;;;;;;;20.83;12.40;;;12.10;93.60;;;;;;5067986;28;20040;-70
2022/05/02 07:27:22;;;;;;;20.70;13.80;;;12.10;93.70;;;;;;5067694;28;20076;-70
2022/05/02 07:29:51;;;;;;;22.30;13.10;;;12.20;93.20;;;;;;5067615;28;20035;-72
2022/05/02 07:32:21;;;;;;;21.80;12.35;;;12.20;93.30;;;;;;5066253;28;20029;-73
2022/05/02 07:34:49;;;;;;;21.57;12.47;;;12.20;93.10;;;;;;5067201;28;20474;-73
2022/05/02 07:37:20;;;;;;;26.17;13.37;;;12.20;93.00;;;;;;5067000;28;20046;-72
2022/05/02 07:39:49;;;;;;;22.70;12.13;;;12.30;92.90;;;;;;5067552;28;20033;-73
2022/05/02 07:42:15;;;;;;;17.15;10.93;;;12.30;92.70;;;;;;5067422;28;20485;-73
2022/05/02 07:44:44;;;;;;;18.67;12.23;;;12.40;92.70;;;;;;5067494;28;20469;-73
2022/05/02 07:47:13;;;;;;;17.92;11.35;;;12.40;92.60;;;;;;5067222;28;20478;-72
2022/05/02 07:49:40;;;;;;;;;;;12.40;92.70;;;;;;5068192;28;20377;-73
2022/05/02 07:52:09;;;;;;;19.17;12.23;;;12.50;92.60;;;;;;5067318;28;20377;-73
2022/05/02 07:54:42;;;;;;;22.20;12.17;;;12.50;92.50;;;;;;5066015;28;20226;-73
2022/05/02 07:57:09;;;;;;;21.83;11.70;;;12.60;92.30;;;;;;5067008;28;20039;-73
2022/05/02 07:59:38;;;;;;;18.77;11.00;;;12.50;91.50;;;;;;5067095;28;20036;-72
2022/05/02 08:02:05;;;;;;;15.80;9.68;;;12.60;91.70;;;;;;5065436;28;20144;-72
2022/05/02 08:04:31;;;;;;;13.83;10.20;;;12.60;92.00;;;;;;5066922;28;20108;-72
2022/05/02 08:07:17;;;;;;;20.03;10.50;;;12.60;92.00;;;;;;5066882;28;20024;-73
2022/05/02 08:10:06;;;;;;;13.53;9.63;;;12.60;91.50;;;;;;5067107;28;20068;-73
2022/05/02 08:12:41;;;;;;;;;;;12.70;91.60;;;;;;5065813;28;20029;-72
2022/05/02 08:15:31;;;;;;;13.73;8.97;;;12.70;91.60;;;;;;5052454;28;19916;-73
2022/05/02 08:18:16;;;;;;;16.47;10.30;;;12.70;91.70;;;;;;5053409;28;20512;-73
2022/05/02 08:21:02;;;;;;;16.40;9.53;;;12.80;91.50;;;;;;5052533;28;20028;-73
2022/05/02 08:29:48;;;;;;;17.30;9.60;;;12.90;91.60;;;;;;5051933;28;20066;-73
2022/05/02 08:32:22;;;;;;;12.70;8.70;;;13.00;91.60;;;;;;5051979;28;20025;-73
2022/05/02 08:35:02;;;;;;;13.97;8.90;;;13.00;91.60;;;;;;5053332;28;20489;-73
2022/05/02 08:38:00;;;;;;;14.97;9.67;;;13.10;91.70;;;;;;5053035;28;20033;-73
2022/05/02 08:40:25;;;;;;;15.73;10.07;;;13.10;91.70;;;;;;5052990;28;20032;-73
2022/05/02 08:43:22;;;;;;;16.43;8.93;;;13.20;91.10;;;;;;5052925;28;20039;-73
2022/05/02 08:46:10;;;;;;;13.10;9.63;;;13.20;90.90;;;;;;5053162;28;20029;-73
2022/05/02 08:49:32;;;;;;;15.43;9.47;;;13.20;91.10;;;;;;5052861;28;20100;-73
2022/05/02 08:52:11;;;;;;;15.77;9.18;;;13.30;91.00;;;;;;5052937;28;20037;-73
2022/05/02 08:54:57;;;;;;;14.18;8.90;;;13.30;90.70;;;;;;5051698;28;20120;-71
2022/05/02 08:57:49;;;;;;;11.98;8.27;;;13.40;90.40;;;;;;5052914;28;20456;-71
2022/05/02 09:00:47;;;;;;;12.93;9.20;;;13.40;90.70;;;;;;5051862;28;20032;-73
2022/05/02 09:03:41;;;;;;;11.35;7.63;;;13.50;90.80;;;;;;5046041;28;20128;-74
2022/05/02 09:06:52;;;;;;;11.75;7.45;;;13.50;91.00;;;;;;5052683;28;20020;-73
2022/05/02 09:09:37;;;;;;;15.80;8.38;;;13.60;91.10;;;;;;5031868;28;20076;-71
2022/05/02 09:12:21;;;;;;;11.55;8.02;;;13.60;91.00;;;;;;5052723;28;20577;-72
2022/05/02 09:15:04;;;;;;;14.43;9.27;;;13.70;90.90;;;;;;5053005;28;20036;-72
2022/05/02 09:17:55;;;;;;;12.57;8.10;;;13.70;90.40;;;;;;5053527;28;20025;-70
2022/05/02 09:20:52;;;;;;;13.52;8.07;;;13.70;90.50;;;;;;5053146;28;20426;-72
2022/05/02 09:23:47;;;;;;;13.50;9.05;;;13.70;90.70;;;;;;5052437;28;20028;-72
2022/05/02 09:26:53;;;;;;;15.57;9.23;;;13.80;90.70;;;;;;5051192;28;20528;-72
2022/05/02 09:29:46;;;;;;;11.98;8.20;;;14.00;90.10;;;;;;5052472;28;20037;-72
2022/05/02 09:32:25;;;;;;;15.45;9.18;;;14.00;90.30;;;;;;5052140;28;20063;-71
2022/05/02 09:34:58;;;;;;;14.40;8.80;;;14.10;90.20;;;;;;5052650;28;20544;-72
2022/05/02 09:37:30;;;;;;;15.40;9.27;;;14.10;90.40;;;;;;5052474;28;20033;-71
2022/05/02 09:40:15;;;;;;;14.18;9.05;;;14.10;90.50;;;;;;5050771;28;20474;-72
2022/05/02 09:42:50;;;;;;;15.57;8.77;;;14.20;90.40;;;;;;5051465;28;20394;-72
2022/05/02 09:51:32;;;;;;;15.57;9.70;;;14.50;89.10;;;;;;5051574;28;20116;-72
2022/05/02 09:56:37;;;;;;;13.15;9.70;;;14.50;89.00;;;;;;5051983;28;20444;-72
2022/05/02 09:57:21;;;;;;;18.55;10.15;;;14.60;89.20;;;;;;5052029;28;20033;-72
2022/05/02 10:01:06;;;;;;;15.75;10.07;;;14.60;89.50;;;;;;5051434;28;20037;-71
2022/05/02 10:02:48;;;;;;;17.08;10.65;;;14.70;88.40;;;;;;5051000;28;20036;-72
2022/05/02 10:05:26;;;;;;;15.40;9.27;;;14.80;88.10;;;;;;5050992;28;20028;-72
2022/05/02 10:08:16;;;;;;;13.82;8.23;;;14.80;88.60;;;;;;5049720;28;20029;-72
2022/05/02 10:10:50;;;;;;;14.02;8.25;;;14.70;89.30;;;;;;5049653;28;20313;-71
2022/05/02 10:13:42;;;;;;;14.05;8.90;;;14.70;89.10;;;;;;5049753;28;20029;-72
2022/05/02 10:16:40;;;;;;;13.95;9.15;;;14.70;89.20;;;;;;5049569;28;20021;-71
2022/05/02 10:19:21;;;;;;;14.93;8.75;;;14.70;89.10;;;;;;5049764;28;20028;-73
2022/05/02 10:22:15;;;;;;;14.48;8.80;;;14.70;88.40;;;;;;5050694;28;20025;-71
2022/05/02 10:25:05;;;;;;;12.70;9.13;;;14.70;90.00;;;;;;5051616;28;20470;-71
2022/05/02 10:27:55;;;;;;;16.70;8.25;;;14.80;89.50;;;;;;5051118;28;20456;-71
2022/05/02 10:30:24;;;;;;;11.52;8.07;;;14.90;89.70;;;;;;5051297;28;20021;-71
2022/05/02 10:32:50;;;;;;;19.35;8.80;;;14.90;89.10;;;;;;5051164;28;20032;-71
2022/05/02 10:35:18;;;;;;;12.23;8.40;;;14.90;88.30;;;;;;5051265;28;20386;-71
2022/05/02 10:38:02;;;;;;;17.42;9.20;;;14.90;88.00;;;;;;5050863;28;20035;-72
2022/05/02 10:40:34;;;;;;;20.30;10.15;;;15.00;87.30;;;;;;5051137;28;20041;-69
2022/05/02 10:43:04;;;;;;;15.60;9.30;;;15.00;86.80;;;;;;5051386;28;20486;-69
2022/05/02 10:45:36;;;;;;;13.75;9.07;;;15.00;86.10;;;;;;5051555;28;20090;-71
2022/05/02 10:48:18;;;;;;;17.17;9.25;;;15.00;86.30;;;;;;5067264;28;20600;-70
2022/05/02 10:51:11;;;;;;;14.20;8.75;;;15.10;86.50;;;;;;5050976;28;20025;-70
2022/05/02 10:54:11;;;;;;;12.50;8.45;;;15.20;85.70;;;;;;5050835;28;20060;-70
2022/05/02 10:56:46;;;;;;;14.02;9.25;;;15.20;85.60;;;;;;5050805;28;20025;-70
2022/05/02 10:59:20;;;;;;;14.48;8.82;;;15.30;85.10;;;;;;5049809;28;20115;-70
2022/05/02 11:02:10;;;;;;;13.95;8.90;;;15.40;84.80;;;;;;5050687;28;20276;-69
2022/05/02 11:04:58;;;;;;;14.50;9.10;;;15.40;84.90;;;;;;5049573;28;20116;-69
2022/05/02 11:07:56;;;;;;;16.90;8.55;;;15.60;83.50;;;;;;5050795;28;20095;-70
2022/05/02 11:10:28;;;;;;;17.13;9.05;;;15.70;84.00;;;;;;5030132;28;20040;-71
2022/05/02 11:13:23;;;;;;;16.27;9.38;;;15.70;83.90;;;;;;5050706;28;20033;-72
2022/05/02 11:16:14;;;;;;;12.90;8.15;;;15.70;82.80;;;;;;5050848;28;20036;-70
2022/05/02 11:22:23;;;;;;;12.95;7.80;;;15.60;83.80;;;;;;5050489;28;20146;-69
2022/05/02 11:24:59;;;;;;;12.70;8.35;;;15.60;84.10;;;;;;5050882;28;20406;-68
2022/05/02 11:27:28;;;;;;;13.63;8.45;;;15.60;85.40;;;;;;5050848;28;20727;-68
2022/05/02 11:30:06;;;;;;;14.93;9.18;;;15.70;82.40;;;;;;5051005;28;20029;-67
2022/05/02 11:33:04;;;;;;;11.93;7.65;;;15.70;83.30;;;;;;5050709;28;20551;-68
2022/05/02 11:35:31;;;;;;;16.55;8.40;;;15.80;84.00;;;;;;5049461;28;20068;-68
2022/05/02 11:38:14;;;;;;;19.08;9.35;;;15.90;83.30;;;;;;5050554;28;20398;-68
2022/05/02 11:43:21;;;;;;;14.10;8.73;;;16.10;82.50;;;;;;5008470;28;20068;-68
2022/05/02 11:46:22;;;;;;;15.00;7.43;;;16.20;81.80;;;;;;5010788;28;20034;-67
2022/05/02 11:49:04;;;;;;;13.82;8.88;;;16.20;82.00;;;;;;4991567;28;20069;-67
2022/05/02 11:51:29;;;;;;;14.07;8.18;;;16.20;80.90;;;;;;4994858;28;20057;-67
2022/05/02 11:53:58;;;;;;;12.85;8.30;;;16.20;81.30;;;;;;4994691;28;20026;-67
2022/05/02 11:56:39;;;;;;;11.88;7.50;;;16.20;81.90;;;;;;4994607;28;20041;-67
2022/05/02 11:59:12;;;;;;;11.60;6.95;;;16.20;82.10;;;;;;4994682;28;20030;-67
2022/05/02 12:01:41;;;;;;;15.07;7.93;;;16.20;81.30;;;;;;4994559;28;20558;-66
2022/05/02 12:04:08;;;;;;;;;;;16.20;81.60;;;;;;4995153;28;20373;-67
2022/05/02 12:06:49;;;;;;;10.00;6.93;;;16.20;81.60;;;;;;4994585;28;19913;-67
2022/05/02 12:09:22;;;;;;;12.02;7.20;;;16.10;82.00;;;;;;4994603;28;20026;-67
2022/05/02 12:11:58;;;;;;;16.90;8.75;;;16.10;80.40;;;;;;4994538;28;20029;-67
2022/05/02 12:14:24;;;;;;;10.77;7.95;;;16.20;80.50;;;;;;4994441;28;20049;-67
2022/05/02 12:17:10;;;;;;;15.70;8.48;;;16.10;79.70;;;;;;4994221;28;20066;-67
2022/05/02 12:19:38;;;;;;;12.93;8.68;;;16.10;79.80;;;;;;4994526;28;20030;-67
2022/05/02 12:22:13;;;;;;;10.52;7.38;;;16.20;79.70;;;;;;4994528;28;20125;-67
2022/05/02 12:24:48;;;;;;;11.45;7.72;;;16.30;80.60;;;;;;4994252;28;20368;-67
2022/05/02 12:27:16;;;;;;;11.63;7.97;;;16.30;80.70;;;;;;4994045;28;20048;-67
2022/05/02 12:29:43;;;;;;;10.98;6.93;;;16.30;80.70;;;;;;4994214;28;20109;-67
2022/05/02 12:32:10;;;;;;;9.32;6.97;;;16.30;80.70;;;;;;4994176;28;20030;-67
2022/05/02 12:34:52;;;;;;;12.00;7.43;;;16.20;81.10;;;;;;4994267;28;20034;-67
2022/05/02 12:37:27;;;;;;;15.25;7.90;;;16.10;81.30;;;;;;4994026;28;20046;-67
2022/05/02 12:40:05;;;;;;;12.60;7.13;;;16.00;82.00;;;;;;4994007;28;20037;-68
2022/05/02 12:42:47;;;;;;;9.70;6.05;;;15.90;82.30;;;;;;4992514;28;20030;-67
2022/05/02 12:45:16;;;;;;;9.52;6.40;;;15.90;82.00;;;;;;4993998;28;20080;-68
2022/05/02 12:47:42;;;;;;;11.95;7.00;;;16.00;82.00;;;;;;4993585;28;20030;-67
2022/05/02 12:50:17;;;;;;;12.20;7.07;;;16.10;82.10;;;;;;4994017;28;20614;-66
2022/05/02 12:52:51;;;;;;;9.45;6.95;;;16.20;80.70;;;;;;4993692;28;20044;-68
2022/05/02 12:55:19;;;;;;;8.95;6.55;;;16.30;80.10;;;;;;4993740;28;20038;-66
2022/05/02 13:00:42;;;;;;;10.70;7.32;;;16.60;80.30;;;;;;4993560;28;20054;-66
2022/05/02 13:03:10;;;;;;;10.50;6.90;;;16.80;78.30;;;;;;4993625;28;20491;-66
2022/05/02 13:05:41;;;;;;;10.07;6.63;;;16.80;78.80;;;;;;4993615;28;20030;-67
2022/05/02 13:08:13;;;;;;;12.50;6.72;;;16.80;78.80;;;;;;4993287;28;20550;-66
2022/05/02 13:10:42;;;;;;;11.40;6.85;;;16.80;79.30;;;;;;4993488;28;20030;-66
2022/05/02 13:13:11;;;;;;;9.38;6.57;;;16.70;79.80;;;;;;4993487;28;20281;-66
2022/05/02 13:15:37;;;;;;;11.75;7.32;;;16.70;79.00;;;;;;4993480;28;20442;-67
2022/05/02 13:18:08;;;;;;;11.60;7.00;;;16.60;78.30;;;;;;4993082;28;20039;-67
2022/05/02 13:20:35;;;;;;;12.32;7.00;;;16.60;78.50;;;;;;4993272;28;20034;-67
2022/05/02 13:23:07;;;;;;;11.10;7.35;;;16.60;77.60;;;;;;4993073;28;20057;-67
2022/05/02 13:25:46;;;;;;;8.23;6.18;;;16.60;77.20;;;;;;4993100;28;20033;-67
2022/05/02 13:28:23;;;;;;;10.30;6.80;;;16.60;77.60;;;;;;4975438;28;20391;-67
2022/05/02 13:30:55;;;;;;;11.00;6.28;;;16.60;77.80;;;;;;4993200;28;20033;-67
2022/05/02 13:33:32;;;;;;;9.73;6.10;;;16.60;77.50;;;;;;4993022;28;20077;-67
2022/05/02 13:36:04;;;;;;;10.38;6.03;;;16.70;77.40;;;;;;4993048;28;20045;-67